sensor_id;sensor_type;location;lat;lon;timestamp;P1;durP1;ratioP1;P2;durP2;ratioP2
17794;SDS011;9021;50.882;4.326;2022-12-24T00:01:04;27.70;;;5.05;;
17794;SDS011;9021;50.882;4.326;2022-12-24T00:03:30;23.85;;;4.90;;
17794;SDS011;9021;50.882;4.326;2022-12-24T00:05:56;35.15;;;6.00;;
17794;SDS011;9021;50.882;4.326;2022-12-24T00:08:22;28.50;;;5.18;;
17794;SDS011;9021;50.882;4.326;2022-12-24T00:10:51;30.23;;;5.45;;
17794;SDS011;9021;50.882;4.326;2022-12-24T00:13:18;28.15;;;4.97;;
17794;SDS011;9021;50.882;4.326;2022-12-24T00:15:43;37.00;;;6.03;;
17794;SDS011;9021;50.882;4.326;2022-12-24T00:18:09;36.95;;;6.18;;
17794;SDS011;9021;50.882;4.326;2022-12-24T00:20:35;27.08;;;4.85;;
17794;SDS011;9021;50.882;4.326;2022-12-24T00:23:00;32.90;;;5.25;;
17794;SDS011;9021;50.882;4.326;2022-12-24T00:25:26;29.40;;;4.55;;
17794;SDS011;9021;50.882;4.326;2022-12-24T00:27:51;32.65;;;5.93;;
17794;SDS011;9021;50.882;4.326;2022-12-24T00:30:17;24.75;;;4.68;;
17794;SDS011;9021;50.882;4.326;2022-12-24T00:32:43;30.80;;;5.43;;
17794;SDS011;9021;50.882;4.326;2022-12-24T00:35:08;29.02;;;4.90;;
17794;SDS011;9021;50.882;4.326;2022-12-24T00:37:34;31.40;;;5.50;;
17794;SDS011;9021;50.882;4.326;2022-12-24T00:39:59;33.90;;;6.20;;
17794;SDS011;9021;50.882;4.326;2022-12-24T00:42:25;28.40;;;5.05;;
17794;SDS011;9021;50.882;4.326;2022-12-24T00:44:51;29.42;;;5.75;;
17794;SDS011;9021;50.882;4.326;2022-12-24T00:47:16;31.55;;;5.47;;
17794;SDS011;9021;50.882;4.326;2022-12-24T00:49:42;34.58;;;6.25;;
17794;SDS011;9021;50.882;4.326;2022-12-24T00:52:08;27.75;;;5.38;;
17794;SDS011;9021;50.882;4.326;2022-12-24T00:54:33;34.72;;;5.45;;
17794;SDS011;9021;50.882;4.326;2022-12-24T00:56:59;26.10;;;4.45;;
17794;SDS011;9021;50.882;4.326;2022-12-24T00:59:24;28.70;;;5.60;;
17794;SDS011;9021;50.882;4.326;2022-12-24T01:01:50;25.60;;;5.38;;
17794;SDS011;9021;50.882;4.326;2022-12-24T01:04:16;32.15;;;6.10;;
17794;SDS011;9021;50.882;4.326;2022-12-24T01:07:00;33.40;;;6.63;;
17794;SDS011;9021;50.882;4.326;2022-12-24T01:09:26;29.80;;;5.20;;
17794;SDS011;9021;50.882;4.326;2022-12-24T01:11:51;33.97;;;5.70;;
17794;SDS011;9021;50.882;4.326;2022-12-24T01:14:17;27.55;;;4.95;;
17794;SDS011;9021;50.882;4.326;2022-12-24T01:16:43;34.08;;;5.20;;
17794;SDS011;9021;50.882;4.326;2022-12-24T01:19:08;34.03;;;4.85;;
17794;SDS011;9021;50.882;4.326;2022-12-24T01:24:00;30.33;;;5.22;;
17794;SDS011;9021;50.882;4.326;2022-12-24T01:26:25;20.83;;;3.78;;
17794;SDS011;9021;50.882;4.326;2022-12-24T01:28:52;30.95;;;5.43;;
17794;SDS011;9021;50.882;4.326;2022-12-24T01:33:44;23.73;;;4.07;;
17794;SDS011;9021;50.882;4.326;2022-12-24T01:36:10;23.60;;;4.18;;
17794;SDS011;9021;50.882;4.326;2022-12-24T01:38:37;19.77;;;3.80;;
17794;SDS011;9021;50.882;4.326;2022-12-24T01:41:03;15.70;;;2.88;;
17794;SDS011;9021;50.882;4.326;2022-12-24T01:43:47;21.83;;;3.30;;
17794;SDS011;9021;50.882;4.326;2022-12-24T01:46:19;16.00;;;2.38;;
17794;SDS011;9021;50.882;4.326;2022-12-24T01:51:23;14.00;;;3.33;;
17794;SDS011;9021;50.882;4.326;2022-12-24T01:54:20;25.02;;;3.90;;
17794;SDS011;9021;50.882;4.326;2022-12-24T01:57:03;24.80;;;4.50;;
17794;SDS011;9021;50.882;4.326;2022-12-24T01:59:35;29.67;;;5.28;;
17794;SDS011;9021;50.882;4.326;2022-12-24T02:02:02;22.90;;;3.92;;
17794;SDS011;9021;50.882;4.326;2022-12-24T02:07:06;33.75;;;4.68;;
17794;SDS011;9021;50.882;4.326;2022-12-24T02:09:32;33.90;;;5.55;;
17794;SDS011;9021;50.882;4.326;2022-12-24T02:11:59;40.05;;;5.80;;
17794;SDS011;9021;50.882;4.326;2022-12-24T02:14:26;41.15;;;5.75;;
17794;SDS011;9021;50.882;4.326;2022-12-24T02:22:31;28.15;;;4.72;;
17794;SDS011;9021;50.882;4.326;2022-12-24T02:30:54;28.88;;;4.85;;
17794;SDS011;9021;50.882;4.326;2022-12-24T02:33:28;22.67;;;5.03;;
17794;SDS011;9021;50.882;4.326;2022-12-24T02:36:00;25.65;;;4.60;;
17794;SDS011;9021;50.882;4.326;2022-12-24T02:38:51;31.50;;;4.63;;
17794;SDS011;9021;50.882;4.326;2022-12-24T02:41:37;22.48;;;4.72;;
17794;SDS011;9021;50.882;4.326;2022-12-24T02:44:26;30.23;;;5.10;;
17794;SDS011;9021;50.882;4.326;2022-12-24T02:46:54;26.67;;;4.55;;
17794;SDS011;9021;50.882;4.326;2022-12-24T02:49:23;23.55;;;5.18;;
17794;SDS011;9021;50.882;4.326;2022-12-24T02:51:48;21.33;;;4.05;;
17794;SDS011;9021;50.882;4.326;2022-12-24T02:54:14;25.90;;;4.80;;
17794;SDS011;9021;50.882;4.326;2022-12-24T02:59:40;26.48;;;4.72;;
17794;SDS011;9021;50.882;4.326;2022-12-24T03:05:08;26.15;;;4.63;;
17794;SDS011;9021;50.882;4.326;2022-12-24T03:07:44;27.67;;;4.78;;
17794;SDS011;9021;50.882;4.326;2022-12-24T03:13:18;22.45;;;4.80;;
17794;SDS011;9021;50.882;4.326;2022-12-24T03:15:45;20.67;;;3.83;;
17794;SDS011;9021;50.882;4.326;2022-12-24T03:18:13;25.20;;;4.90;;
17794;SDS011;9021;50.882;4.326;2022-12-24T03:20:48;20.75;;;4.50;;
17794;SDS011;9021;50.882;4.326;2022-12-24T03:23:24;24.45;;;4.72;;
17794;SDS011;9021;50.882;4.326;2022-12-24T03:25:50;21.73;;;4.80;;
17794;SDS011;9021;50.882;4.326;2022-12-24T03:28:16;28.38;;;5.07;;
17794;SDS011;9021;50.882;4.326;2022-12-24T03:30:44;25.17;;;4.85;;
17794;SDS011;9021;50.882;4.326;2022-12-24T03:33:12;23.45;;;5.10;;
17794;SDS011;9021;50.882;4.326;2022-12-24T03:35:38;29.45;;;5.18;;
17794;SDS011;9021;50.882;4.326;2022-12-24T03:38:04;25.77;;;5.50;;
17794;SDS011;9021;50.882;4.326;2022-12-24T03:40:29;31.45;;;5.15;;
17794;SDS011;9021;50.882;4.326;2022-12-24T03:42:55;24.52;;;5.40;;
17794;SDS011;9021;50.882;4.326;2022-12-24T03:45:21;30.05;;;5.05;;
17794;SDS011;9021;50.882;4.326;2022-12-24T03:47:46;31.92;;;5.03;;
17794;SDS011;9021;50.882;4.326;2022-12-24T03:50:12;31.60;;;5.85;;
17794;SDS011;9021;50.882;4.326;2022-12-24T03:52:38;29.77;;;5.20;;
17794;SDS011;9021;50.882;4.326;2022-12-24T03:55:03;28.20;;;4.93;;
17794;SDS011;9021;50.882;4.326;2022-12-24T03:57:29;30.63;;;5.47;;
17794;SDS011;9021;50.882;4.326;2022-12-24T03:59:55;29.63;;;6.70;;
17794;SDS011;9021;50.882;4.326;2022-12-24T04:02:20;30.95;;;4.97;;
17794;SDS011;9021;50.882;4.326;2022-12-24T04:04:46;30.40;;;4.68;;
17794;SDS011;9021;50.882;4.326;2022-12-24T04:07:12;24.35;;;4.68;;
17794;SDS011;9021;50.882;4.326;2022-12-24T04:09:37;31.48;;;6.05;;
17794;SDS011;9021;50.882;4.326;2022-12-24T04:12:04;26.33;;;4.60;;
17794;SDS011;9021;50.882;4.326;2022-12-24T04:14:30;27.35;;;4.45;;
17794;SDS011;9021;50.882;4.326;2022-12-24T04:16:56;32.13;;;5.30;;
17794;SDS011;9021;50.882;4.326;2022-12-24T04:19:22;27.77;;;5.78;;
17794;SDS011;9021;50.882;4.326;2022-12-24T04:21:47;32.67;;;5.20;;
17794;SDS011;9021;50.882;4.326;2022-12-24T04:24:13;24.73;;;5.05;;
17794;SDS011;9021;50.882;4.326;2022-12-24T04:26:38;27.30;;;4.53;;
17794;SDS011;9021;50.882;4.326;2022-12-24T04:29:04;34.90;;;4.93;;
17794;SDS011;9021;50.882;4.326;2022-12-24T04:31:30;36.72;;;6.53;;
17794;SDS011;9021;50.882;4.326;2022-12-24T04:33:55;29.95;;;4.88;;
17794;SDS011;9021;50.882;4.326;2022-12-24T04:36:21;33.33;;;5.40;;
17794;SDS011;9021;50.882;4.326;2022-12-24T04:38:47;30.25;;;5.03;;
17794;SDS011;9021;50.882;4.326;2022-12-24T04:41:14;26.92;;;4.85;;
17794;SDS011;9021;50.882;4.326;2022-12-24T04:43:43;31.20;;;4.95;;
17794;SDS011;9021;50.882;4.326;2022-12-24T04:46:10;34.80;;;5.30;;
17794;SDS011;9021;50.882;4.326;2022-12-24T04:48:39;28.00;;;5.10;;
17794;SDS011;9021;50.882;4.326;2022-12-24T04:51:05;35.22;;;5.93;;
17794;SDS011;9021;50.882;4.326;2022-12-24T04:53:33;35.65;;;5.82;;
17794;SDS011;9021;50.882;4.326;2022-12-24T04:55:59;28.58;;;5.57;;
17794;SDS011;9021;50.882;4.326;2022-12-24T04:58:25;34.45;;;6.07;;
17794;SDS011;9021;50.882;4.326;2022-12-24T05:00:51;32.53;;;6.05;;
17794;SDS011;9021;50.882;4.326;2022-12-24T05:03:17;37.10;;;5.03;;
17794;SDS011;9021;50.882;4.326;2022-12-24T05:05:43;35.53;;;5.70;;
17794;SDS011;9021;50.882;4.326;2022-12-24T05:08:08;31.45;;;5.75;;
17794;SDS011;9021;50.882;4.326;2022-12-24T05:10:34;23.55;;;4.95;;
17794;SDS011;9021;50.882;4.326;2022-12-24T05:13:01;28.80;;;5.07;;
17794;SDS011;9021;50.882;4.326;2022-12-24T05:15:26;31.15;;;5.10;;
17794;SDS011;9021;50.882;4.326;2022-12-24T05:17:53;32.78;;;5.38;;
17794;SDS011;9021;50.882;4.326;2022-12-24T05:20:18;27.40;;;5.63;;
17794;SDS011;9021;50.882;4.326;2022-12-24T05:22:44;38.88;;;6.43;;
17794;SDS011;9021;50.882;4.326;2022-12-24T05:25:37;32.20;;;5.72;;
17794;SDS011;9021;50.882;4.326;2022-12-24T05:28:22;35.45;;;5.32;;
17794;SDS011;9021;50.882;4.326;2022-12-24T05:30:48;31.67;;;5.50;;
17794;SDS011;9021;50.882;4.326;2022-12-24T05:33:14;33.67;;;6.03;;
17794;SDS011;9021;50.882;4.326;2022-12-24T05:35:40;37.85;;;6.68;;
17794;SDS011;9021;50.882;4.326;2022-12-24T05:38:05;34.28;;;5.38;;
17794;SDS011;9021;50.882;4.326;2022-12-24T05:40:31;32.30;;;5.22;;
17794;SDS011;9021;50.882;4.326;2022-12-24T05:42:56;31.02;;;5.03;;
17794;SDS011;9021;50.882;4.326;2022-12-24T05:45:22;27.08;;;5.15;;
17794;SDS011;9021;50.882;4.326;2022-12-24T05:47:48;30.27;;;5.93;;
17794;SDS011;9021;50.882;4.326;2022-12-24T05:50:13;29.73;;;5.25;;
17794;SDS011;9021;50.882;4.326;2022-12-24T05:52:39;37.53;;;6.07;;
17794;SDS011;9021;50.882;4.326;2022-12-24T05:55:05;28.33;;;5.13;;
17794;SDS011;9021;50.882;4.326;2022-12-24T05:57:31;36.20;;;5.60;;
17794;SDS011;9021;50.882;4.326;2022-12-24T05:59:56;29.85;;;5.80;;
17794;SDS011;9021;50.882;4.326;2022-12-24T06:02:22;35.35;;;5.18;;
17794;SDS011;9021;50.882;4.326;2022-12-24T06:04:47;33.42;;;5.68;;
17794;SDS011;9021;50.882;4.326;2022-12-24T06:07:13;27.75;;;4.85;;
17794;SDS011;9021;50.882;4.326;2022-12-24T06:09:39;32.25;;;5.68;;
17794;SDS011;9021;50.882;4.326;2022-12-24T06:12:04;37.63;;;5.65;;
17794;SDS011;9021;50.882;4.326;2022-12-24T06:14:30;29.08;;;5.60;;
17794;SDS011;9021;50.882;4.326;2022-12-24T06:16:56;33.75;;;5.55;;
17794;SDS011;9021;50.882;4.326;2022-12-24T06:19:22;27.70;;;4.95;;
17794;SDS011;9021;50.882;4.326;2022-12-24T06:21:47;45.60;;;6.18;;
17794;SDS011;9021;50.882;4.326;2022-12-24T06:24:13;36.63;;;5.28;;
17794;SDS011;9021;50.882;4.326;2022-12-24T06:26:39;34.15;;;6.50;;
17794;SDS011;9021;50.882;4.326;2022-12-24T06:29:05;30.42;;;5.05;;
17794;SDS011;9021;50.882;4.326;2022-12-24T06:31:30;33.13;;;5.53;;
17794;SDS011;9021;50.882;4.326;2022-12-24T06:33:56;40.85;;;6.05;;
17794;SDS011;9021;50.882;4.326;2022-12-24T06:36:22;29.35;;;5.13;;
17794;SDS011;9021;50.882;4.326;2022-12-24T06:38:50;38.63;;;6.70;;
17794;SDS011;9021;50.882;4.326;2022-12-24T06:41:16;32.45;;;5.68;;
17794;SDS011;9021;50.882;4.326;2022-12-24T06:43:44;37.60;;;6.07;;
17794;SDS011;9021;50.882;4.326;2022-12-24T06:46:11;30.15;;;5.63;;
17794;SDS011;9021;50.882;4.326;2022-12-24T06:51:02;32.55;;;4.95;;
17794;SDS011;9021;50.882;4.326;2022-12-24T06:53:28;26.20;;;5.47;;
17794;SDS011;9021;50.882;4.326;2022-12-24T06:56:02;30.50;;;5.22;;
17794;SDS011;9021;50.882;4.326;2022-12-24T06:58:28;34.53;;;6.28;;
17794;SDS011;9021;50.882;4.326;2022-12-24T07:00:54;35.83;;;5.43;;
17794;SDS011;9021;50.882;4.326;2022-12-24T07:03:19;36.72;;;5.80;;
17794;SDS011;9021;50.882;4.326;2022-12-24T07:05:45;38.78;;;6.32;;
17794;SDS011;9021;50.882;4.326;2022-12-24T07:08:11;32.35;;;6.00;;
17794;SDS011;9021;50.882;4.326;2022-12-24T07:10:36;27.98;;;4.43;;
17794;SDS011;9021;50.882;4.326;2022-12-24T07:13:02;29.40;;;5.68;;
17794;SDS011;9021;50.882;4.326;2022-12-24T07:15:27;35.35;;;5.60;;
17794;SDS011;9021;50.882;4.326;2022-12-24T07:17:53;29.42;;;5.38;;
17794;SDS011;9021;50.882;4.326;2022-12-24T07:20:19;31.95;;;5.90;;
17794;SDS011;9021;50.882;4.326;2022-12-24T07:22:44;44.22;;;5.97;;
17794;SDS011;9021;50.882;4.326;2022-12-24T07:25:10;40.35;;;5.57;;
17794;SDS011;9021;50.882;4.326;2022-12-24T07:27:36;28.60;;;5.50;;
17794;SDS011;9021;50.882;4.326;2022-12-24T07:30:03;27.77;;;4.88;;
17794;SDS011;9021;50.882;4.326;2022-12-24T07:32:29;29.92;;;5.18;;
17794;SDS011;9021;50.882;4.326;2022-12-24T07:34:54;36.67;;;5.88;;
17794;SDS011;9021;50.882;4.326;2022-12-24T07:37:20;33.38;;;5.68;;
17794;SDS011;9021;50.882;4.326;2022-12-24T07:39:46;29.65;;;5.10;;
17794;SDS011;9021;50.882;4.326;2022-12-24T07:42:11;33.15;;;5.88;;
17794;SDS011;9021;50.882;4.326;2022-12-24T07:44:37;37.17;;;5.90;;
17794;SDS011;9021;50.882;4.326;2022-12-24T07:47:02;34.42;;;6.03;;
17794;SDS011;9021;50.882;4.326;2022-12-24T07:49:28;40.88;;;5.93;;
17794;SDS011;9021;50.882;4.326;2022-12-24T07:51:54;31.75;;;5.35;;
17794;SDS011;9021;50.882;4.326;2022-12-24T07:54:19;37.03;;;6.75;;
17794;SDS011;9021;50.882;4.326;2022-12-24T07:56:45;29.65;;;5.32;;
17794;SDS011;9021;50.882;4.326;2022-12-24T07:59:11;31.08;;;6.20;;
17794;SDS011;9021;50.882;4.326;2022-12-24T08:01:38;31.65;;;5.80;;
17794;SDS011;9021;50.882;4.326;2022-12-24T08:04:04;36.40;;;5.55;;
17794;SDS011;9021;50.882;4.326;2022-12-24T08:06:29;44.63;;;6.78;;
17794;SDS011;9021;50.882;4.326;2022-12-24T08:08:55;39.28;;;6.40;;
17794;SDS011;9021;50.882;4.326;2022-12-24T08:11:20;32.38;;;6.03;;
17794;SDS011;9021;50.882;4.326;2022-12-24T08:13:46;41.20;;;5.90;;
17794;SDS011;9021;50.882;4.326;2022-12-24T08:16:12;33.40;;;5.60;;
17794;SDS011;9021;50.882;4.326;2022-12-24T08:18:37;30.90;;;5.80;;
17794;SDS011;9021;50.882;4.326;2022-12-24T08:21:05;40.92;;;6.47;;
17794;SDS011;9021;50.882;4.326;2022-12-24T08:23:32;37.08;;;6.53;;
17794;SDS011;9021;50.882;4.326;2022-12-24T08:25:58;23.15;;;5.15;;
17794;SDS011;9021;50.882;4.326;2022-12-24T08:28:24;27.90;;;5.65;;
17794;SDS011;9021;50.882;4.326;2022-12-24T08:30:49;26.95;;;5.55;;
17794;SDS011;9021;50.882;4.326;2022-12-24T08:33:16;29.80;;;5.65;;
17794;SDS011;9021;50.882;4.326;2022-12-24T08:35:52;33.33;;;5.80;;
17794;SDS011;9021;50.882;4.326;2022-12-24T08:40:44;29.15;;;5.30;;
17794;SDS011;9021;50.882;4.326;2022-12-24T08:43:17;29.33;;;6.03;;
17794;SDS011;9021;50.882;4.326;2022-12-24T08:45:43;30.88;;;6.80;;
17794;SDS011;9021;50.882;4.326;2022-12-24T08:48:10;26.90;;;5.05;;
17794;SDS011;9021;50.882;4.326;2022-12-24T08:50:39;27.70;;;5.15;;
17794;SDS011;9021;50.882;4.326;2022-12-24T08:53:05;27.33;;;5.53;;
17794;SDS011;9021;50.882;4.326;2022-12-24T08:55:32;37.97;;;6.68;;
17794;SDS011;9021;50.882;4.326;2022-12-24T08:57:58;30.48;;;6.35;;
17794;SDS011;9021;50.882;4.326;2022-12-24T09:00:24;33.85;;;7.18;;
17794;SDS011;9021;50.882;4.326;2022-12-24T09:02:49;35.60;;;5.85;;
17794;SDS011;9021;50.882;4.326;2022-12-24T09:05:15;35.13;;;5.20;;
17794;SDS011;9021;50.882;4.326;2022-12-24T09:10:07;27.75;;;5.70;;
17794;SDS011;9021;50.882;4.326;2022-12-24T09:12:33;30.20;;;6.30;;
17794;SDS011;9021;50.882;4.326;2022-12-24T09:14:59;33.42;;;6.15;;
17794;SDS011;9021;50.882;4.326;2022-12-24T09:17:25;32.25;;;6.30;;
17794;SDS011;9021;50.882;4.326;2022-12-24T09:19:50;23.17;;;5.35;;
17794;SDS011;9021;50.882;4.326;2022-12-24T09:22:16;32.65;;;5.82;;
17794;SDS011;9021;50.882;4.326;2022-12-24T09:24:42;32.10;;;6.07;;
17794;SDS011;9021;50.882;4.326;2022-12-24T09:27:07;40.00;;;6.60;;
17794;SDS011;9021;50.882;4.326;2022-12-24T09:29:33;28.42;;;5.88;;
17794;SDS011;9021;50.882;4.326;2022-12-24T09:31:59;35.75;;;5.90;;
17794;SDS011;9021;50.882;4.326;2022-12-24T09:34:25;34.60;;;5.25;;
17794;SDS011;9021;50.882;4.326;2022-12-24T09:36:50;25.73;;;5.65;;
17794;SDS011;9021;50.882;4.326;2022-12-24T09:39:18;28.08;;;5.93;;
17794;SDS011;9021;50.882;4.326;2022-12-24T09:41:51;34.20;;;5.80;;
17794;SDS011;9021;50.882;4.326;2022-12-24T09:47:45;34.03;;;6.27;;
17794;SDS011;9021;50.882;4.326;2022-12-24T09:50:04;33.53;;;6.95;;
17794;SDS011;9021;50.882;4.326;2022-12-24T09:52:50;26.02;;;6.68;;
17794;SDS011;9021;50.882;4.326;2022-12-24T09:55:22;28.95;;;6.32;;
17794;SDS011;9021;50.882;4.326;2022-12-24T09:57:52;34.95;;;6.63;;
17794;SDS011;9021;50.882;4.326;2022-12-24T10:00:20;33.75;;;6.40;;
17794;SDS011;9021;50.882;4.326;2022-12-24T10:02:54;34.80;;;6.13;;
17794;SDS011;9021;50.882;4.326;2022-12-24T10:06:20;34.08;;;6.28;;
17794;SDS011;9021;50.882;4.326;2022-12-24T10:14:07;30.52;;;5.50;;
17794;SDS011;9021;50.882;4.326;2022-12-24T10:19:49;33.63;;;6.60;;
17794;SDS011;9021;50.882;4.326;2022-12-24T10:22:31;25.95;;;6.00;;
17794;SDS011;9021;50.882;4.326;2022-12-24T10:27:39;31.70;;;6.30;;
17794;SDS011;9021;50.882;4.326;2022-12-24T10:30:11;27.92;;;5.93;;
17794;SDS011;9021;50.882;4.326;2022-12-24T10:32:49;23.55;;;4.88;;
17794;SDS011;9021;50.882;4.326;2022-12-24T10:35:18;22.55;;;5.20;;
17794;SDS011;9021;50.882;4.326;2022-12-24T10:37:48;31.00;;;6.22;;
17794;SDS011;9021;50.882;4.326;2022-12-24T10:40:23;36.08;;;5.95;;
17794;SDS011;9021;50.882;4.326;2022-12-24T10:42:50;33.15;;;5.97;;
17794;SDS011;9021;50.882;4.326;2022-12-24T10:45:16;29.23;;;5.72;;
17794;SDS011;9021;50.882;4.326;2022-12-24T10:47:45;26.15;;;5.57;;
17794;SDS011;9021;50.882;4.326;2022-12-24T10:50:22;28.45;;;6.28;;
17794;SDS011;9021;50.882;4.326;2022-12-24T10:52:54;30.58;;;5.95;;
17794;SDS011;9021;50.882;4.326;2022-12-24T10:55:31;30.60;;;6.25;;
17794;SDS011;9021;50.882;4.326;2022-12-24T10:57:58;33.45;;;5.95;;
17794;SDS011;9021;50.882;4.326;2022-12-24T11:00:26;30.02;;;6.38;;
17794;SDS011;9021;50.882;4.326;2022-12-24T11:03:06;30.48;;;6.00;;
17794;SDS011;9021;50.882;4.326;2022-12-24T11:06:04;31.25;;;5.97;;
17794;SDS011;9021;50.882;4.326;2022-12-24T11:08:32;31.13;;;6.63;;
17794;SDS011;9021;50.882;4.326;2022-12-24T11:13:26;34.58;;;6.68;;
17794;SDS011;9021;50.882;4.326;2022-12-24T11:16:06;36.22;;;6.72;;
17794;SDS011;9021;50.882;4.326;2022-12-24T11:18:43;28.80;;;5.95;;
17794;SDS011;9021;50.882;4.326;2022-12-24T11:21:20;32.05;;;6.03;;
17794;SDS011;9021;50.882;4.326;2022-12-24T11:23:56;29.75;;;7.30;;
17794;SDS011;9021;50.882;4.326;2022-12-24T11:26:25;29.67;;;5.57;;
17794;SDS011;9021;50.882;4.326;2022-12-24T11:29:04;32.80;;;5.78;;
17794;SDS011;9021;50.882;4.326;2022-12-24T11:31:36;31.48;;;6.47;;
17794;SDS011;9021;50.882;4.326;2022-12-24T11:36:46;27.15;;;5.72;;
17794;SDS011;9021;50.882;4.326;2022-12-24T11:39:18;32.42;;;6.65;;
17794;SDS011;9021;50.882;4.326;2022-12-24T11:41:47;25.75;;;5.60;;
17794;SDS011;9021;50.882;4.326;2022-12-24T11:44:14;31.80;;;6.20;;
17794;SDS011;9021;50.882;4.326;2022-12-24T11:46:48;27.92;;;7.60;;
17794;SDS011;9021;50.882;4.326;2022-12-24T11:49:27;29.48;;;5.53;;
17794;SDS011;9021;50.882;4.326;2022-12-24T11:54:47;29.33;;;6.22;;
17794;SDS011;9021;50.882;4.326;2022-12-24T11:57:16;26.70;;;5.97;;
17794;SDS011;9021;50.882;4.326;2022-12-24T11:59:47;34.13;;;6.88;;
17794;SDS011;9021;50.882;4.326;2022-12-24T12:02:31;24.08;;;5.30;;
17794;SDS011;9021;50.882;4.326;2022-12-24T12:05:24;27.42;;;4.78;;
17794;SDS011;9021;50.882;4.326;2022-12-24T12:07:51;32.83;;;6.63;;
17794;SDS011;9021;50.882;4.326;2022-12-24T12:10:23;28.02;;;5.75;;
17794;SDS011;9021;50.882;4.326;2022-12-24T12:15:24;33.17;;;5.82;;
17794;SDS011;9021;50.882;4.326;2022-12-24T12:18:15;33.90;;;6.00;;
17794;SDS011;9021;50.882;4.326;2022-12-24T12:20:47;20.40;;;5.30;;
17794;SDS011;9021;50.882;4.326;2022-12-24T12:23:28;30.42;;;6.22;;
17794;SDS011;9021;50.882;4.326;2022-12-24T12:26:01;25.65;;;5.63;;
17794;SDS011;9021;50.882;4.326;2022-12-24T12:31:34;27.40;;;6.50;;
17794;SDS011;9021;50.882;4.326;2022-12-24T12:34:17;26.58;;;5.28;;
17794;SDS011;9021;50.882;4.326;2022-12-24T12:36:46;24.42;;;5.07;;
17794;SDS011;9021;50.882;4.326;2022-12-24T12:39:18;30.30;;;6.57;;
17794;SDS011;9021;50.882;4.326;2022-12-24T12:41:46;33.78;;;7.38;;
17794;SDS011;9021;50.882;4.326;2022-12-24T12:50:15;29.23;;;5.68;;
17794;SDS011;9021;50.882;4.326;2022-12-24T12:58:26;26.20;;;5.20;;
17794;SDS011;9021;50.882;4.326;2022-12-24T13:14:36;34.30;;;7.55;;
17794;SDS011;9021;50.882;4.326;2022-12-24T13:20:27;32.03;;;6.47;;
17794;SDS011;9021;50.882;4.326;2022-12-24T13:25:26;31.25;;;6.55;;
17794;SDS011;9021;50.882;4.326;2022-12-24T13:28:10;28.80;;;5.13;;
17794;SDS011;9021;50.882;4.326;2022-12-24T13:47:21;31.50;;;6.93;;
17794;SDS011;9021;50.882;4.326;2022-12-24T13:49:46;26.40;;;6.05;;
17794;SDS011;9021;50.882;4.326;2022-12-24T13:52:15;30.58;;;6.38;;
17794;SDS011;9021;50.882;4.326;2022-12-24T14:00:06;27.48;;;6.03;;
17794;SDS011;9021;50.882;4.326;2022-12-24T14:03:15;27.42;;;6.70;;
17794;SDS011;9021;50.882;4.326;2022-12-24T14:05:37;24.63;;;5.32;;
17794;SDS011;9021;50.882;4.326;2022-12-24T14:08:11;28.42;;;5.95;;
17794;SDS011;9021;50.882;4.326;2022-12-24T14:16:04;27.67;;;7.07;;
17794;SDS011;9021;50.882;4.326;2022-12-24T14:19:01;33.20;;;5.97;;
17794;SDS011;9021;50.882;4.326;2022-12-24T14:21:37;23.98;;;6.32;;
17794;SDS011;9021;50.882;4.326;2022-12-24T14:24:15;30.45;;;7.40;;
17794;SDS011;9021;50.882;4.326;2022-12-24T14:31:53;29.13;;;6.55;;
17794;SDS011;9021;50.882;4.326;2022-12-24T14:34:20;27.92;;;6.18;;
17794;SDS011;9021;50.882;4.326;2022-12-24T14:36:46;25.45;;;5.28;;
17794;SDS011;9021;50.882;4.326;2022-12-24T14:47:55;35.15;;;6.47;;
17794;SDS011;9021;50.882;4.326;2022-12-24T14:56:14;22.45;;;5.07;;
17794;SDS011;9021;50.882;4.326;2022-12-24T14:58:42;26.23;;;7.72;;
17794;SDS011;9021;50.882;4.326;2022-12-24T15:03:58;30.55;;;7.05;;
17794;SDS011;9021;50.882;4.326;2022-12-24T15:06:50;33.58;;;6.97;;
17794;SDS011;9021;50.882;4.326;2022-12-24T15:09:22;24.42;;;7.18;;
17794;SDS011;9021;50.882;4.326;2022-12-24T15:11:53;27.05;;;5.95;;
17794;SDS011;9021;50.882;4.326;2022-12-24T15:14:23;34.13;;;7.13;;
17794;SDS011;9021;50.882;4.326;2022-12-24T15:16:52;25.13;;;5.88;;
17794;SDS011;9021;50.882;4.326;2022-12-24T15:19:31;26.92;;;6.10;;
17794;SDS011;9021;50.882;4.326;2022-12-24T15:22:00;27.70;;;6.22;;
17794;SDS011;9021;50.882;4.326;2022-12-24T15:24:35;28.98;;;7.18;;
17794;SDS011;9021;50.882;4.326;2022-12-24T15:27:14;29.48;;;7.13;;
17794;SDS011;9021;50.882;4.326;2022-12-24T15:29:49;26.02;;;6.95;;
17794;SDS011;9021;50.882;4.326;2022-12-24T15:32:17;41.15;;;7.10;;
17794;SDS011;9021;50.882;4.326;2022-12-24T15:34:45;32.85;;;8.02;;
17794;SDS011;9021;50.882;4.326;2022-12-24T15:37:57;26.25;;;7.00;;
17794;SDS011;9021;50.882;4.326;2022-12-24T15:40:07;28.13;;;8.07;;
17794;SDS011;9021;50.882;4.326;2022-12-24T15:42:41;38.72;;;10.18;;
17794;SDS011;9021;50.882;4.326;2022-12-24T15:45:15;38.20;;;11.23;;
17794;SDS011;9021;50.882;4.326;2022-12-24T15:48:09;38.40;;;12.30;;
17794;SDS011;9021;50.882;4.326;2022-12-24T15:50:37;32.60;;;11.05;;
17794;SDS011;9021;50.882;4.326;2022-12-24T15:53:14;40.95;;;14.02;;
17794;SDS011;9021;50.882;4.326;2022-12-24T15:58:36;49.22;;;20.08;;
17794;SDS011;9021;50.882;4.326;2022-12-24T16:03:53;39.78;;;14.35;;
17794;SDS011;9021;50.882;4.326;2022-12-24T16:06:20;40.22;;;13.88;;
17794;SDS011;9021;50.882;4.326;2022-12-24T16:08:46;40.15;;;12.50;;
17794;SDS011;9021;50.882;4.326;2022-12-24T16:11:34;28.75;;;8.02;;
17794;SDS011;9021;50.882;4.326;2022-12-24T16:14:02;33.65;;;8.38;;
17794;SDS011;9021;50.882;4.326;2022-12-24T16:16:32;28.27;;;9.25;;
17794;SDS011;9021;50.882;4.326;2022-12-24T16:19:03;34.08;;;8.55;;
17794;SDS011;9021;50.882;4.326;2022-12-24T16:21:37;32.80;;;7.85;;
17794;SDS011;9021;50.882;4.326;2022-12-24T16:24:14;31.55;;;9.45;;
17794;SDS011;9021;50.882;4.326;2022-12-24T16:26:48;32.55;;;8.57;;
17794;SDS011;9021;50.882;4.326;2022-12-24T16:29:16;34.78;;;7.93;;
17794;SDS011;9021;50.882;4.326;2022-12-24T16:34:17;25.75;;;7.25;;
17794;SDS011;9021;50.882;4.326;2022-12-24T16:36:44;27.15;;;6.72;;
17794;SDS011;9021;50.882;4.326;2022-12-24T16:39:11;33.20;;;7.05;;
17794;SDS011;9021;50.882;4.326;2022-12-24T16:41:47;34.72;;;7.15;;
17794;SDS011;9021;50.882;4.326;2022-12-24T16:44:31;32.55;;;7.07;;
17794;SDS011;9021;50.882;4.326;2022-12-24T16:46:57;34.72;;;7.40;;
17794;SDS011;9021;50.882;4.326;2022-12-24T16:49:24;42.53;;;14.50;;
17794;SDS011;9021;50.882;4.326;2022-12-24T16:51:50;32.67;;;7.22;;
17794;SDS011;9021;50.882;4.326;2022-12-24T16:54:16;28.60;;;6.82;;
17794;SDS011;9021;50.882;4.326;2022-12-24T16:56:42;33.63;;;7.90;;
17794;SDS011;9021;50.882;4.326;2022-12-24T16:59:13;25.85;;;6.88;;
17794;SDS011;9021;50.882;4.326;2022-12-24T17:01:41;30.98;;;8.02;;
17794;SDS011;9021;50.882;4.326;2022-12-24T17:04:07;27.13;;;7.28;;
17794;SDS011;9021;50.882;4.326;2022-12-24T17:06:32;37.58;;;7.47;;
17794;SDS011;9021;50.882;4.326;2022-12-24T17:08:58;32.33;;;7.18;;
17794;SDS011;9021;50.882;4.326;2022-12-24T17:11:23;29.15;;;8.98;;
17794;SDS011;9021;50.882;4.326;2022-12-24T17:13:49;39.70;;;10.73;;
17794;SDS011;9021;50.882;4.326;2022-12-24T17:16:14;37.92;;;13.02;;
17794;SDS011;9021;50.882;4.326;2022-12-24T17:18:40;31.35;;;12.57;;
17794;SDS011;9021;50.882;4.326;2022-12-24T17:21:06;30.83;;;10.02;;
17794;SDS011;9021;50.882;4.326;2022-12-24T17:23:32;33.28;;;8.77;;
17794;SDS011;9021;50.882;4.326;2022-12-24T17:25:57;35.88;;;10.32;;
17794;SDS011;9021;50.882;4.326;2022-12-24T17:28:23;27.50;;;8.88;;
17794;SDS011;9021;50.882;4.326;2022-12-24T17:30:49;29.35;;;10.00;;
17794;SDS011;9021;50.882;4.326;2022-12-24T17:33:14;35.75;;;11.98;;
17794;SDS011;9021;50.882;4.326;2022-12-24T17:35:40;33.10;;;11.13;;